Terminal Aerodrome Forecast
Issued by NWS Grand Junction, CO

Home | Current Version | Previous Version | Text Only | Print | Product List | Glossary On
Versions: 1 2 3 4 5 6 7 8 9 10 11 12 13 14 15 16 17 18 19 20 21 22 23 24 25 26 27 28 29 30 31 32
000
FTUS45 KGJT 242339
TAFGJT
TAF
KGJT 242339Z 2500/2524 32003KT P6SM BKN250
     FM250300 11005KT P6SM SCT100 BKN150
     FM250700 12010KT P6SM VCSH SCT050 OVC080
     FM251200 14010KT P6SM OVC050
     FM251600 14007KT 3SM -SN BR OVC020
     FM252000 33007KT 3SM -SN BR OVC015=

USA.gov is the U.S. government's official web portal to all federal, state and local government web resources and services.